Time;durP1;ratioP1;P1;durP2;ratioP2;P2;SDS_P1;SDS_P2;PMS_P1;PMS_P2;Temp;Humidity;BMP_temperature;BMP_pressure;BME280_temperature;BME280_humidity;BME280_pressure;Samples;Min_cycle;Max_cycle;Signal;HPM_P1;HPM_P2
2023/01/05 00:01:25;;;;;;;10.73;9.20;;;;;;;;;;5093022;28;20200;-84
2023/01/05 00:03:53;;;;;;;9.97;8.50;;;;;;;;;;5106530;28;20596;-85
2023/01/05 00:06:20;;;;;;;10.40;8.23;;;;;;;;;;5093823;28;20197;-82
2023/01/05 00:08:47;;;;;;;9.67;8.07;;;;;;;;;;5094068;28;20211;-84
2023/01/05 00:22:30;;;;;;;14.27;9.83;;;;;;;;;;5091051;28;20218;-83
2023/01/05 00:24:57;;;;;;;10.97;8.07;;;;;;;;;;5092911;28;20200;-83
2023/01/05 00:27:25;;;;;;;11.37;9.77;;;;;;;;;;5093263;28;20249;-84
2023/01/05 00:29:51;;;;;;;11.63;10.23;;;;;;;;;;5093796;28;20223;-83
2023/01/05 00:32:18;;;;;;;12.30;9.93;;;;;;;;;;5094376;28;20587;-83
2023/01/05 00:34:47;;;;;;;13.97;10.03;;;;;;;;;;5105114;28;20598;-83
2023/01/05 00:37:13;;;;;;;14.63;11.53;;;;;;;;;;5078568;28;20265;-83
2023/01/05 00:39:40;;;;;;;12.37;9.57;;;;;;;;;;5100394;28;20201;-83
2023/01/05 00:42:07;;;;;;;12.43;10.23;;;;;;;;;;5092533;28;20200;-83
2023/01/05 00:44:34;;;;;;;12.60;10.07;;;;;;;;;;5075145;28;20209;-85
2023/01/05 00:47:01;;;;;;;16.47;12.50;;;;;;;;;;5099484;28;20204;-84
2023/01/05 00:49:28;;;;;;;13.50;10.00;;;;;;;;;;5094493;28;20208;-84
2023/01/05 00:51:56;;;;;;;13.10;9.30;;;;;;;;;;5106400;28;20201;-86
2023/01/05 00:54:23;;;;;;;9.57;8.57;;;;;;;;;;5088111;28;20219;-84
2023/01/05 00:56:50;;;;;;;11.70;9.10;;;;;;;;;;5086334;28;20202;-85
2023/01/05 00:59:17;;;;;;;10.33;9.23;;;;;;;;;;5099414;28;20208;-84
2023/01/05 01:01:46;;;;;;;11.90;9.80;;;;;;;;;;5112778;28;20208;-84
2023/01/05 01:04:13;;;;;;;10.00;8.97;;;;;;;;;;5113067;28;20614;-84
2023/01/05 01:06:40;;;;;;;12.23;9.47;;;;;;;;;;5113032;28;20209;-82
2023/01/05 01:09:09;;;;;;;13.03;9.60;;;;;;;;;;5109534;28;20210;-84
2023/01/05 01:11:37;;;;;;;11.60;8.83;;;;;;;;;;5072093;28;20211;-84
2023/01/05 01:14:04;;;;;;;10.70;8.33;;;;;;;;;;5110422;28;20207;-84
2023/01/05 01:16:31;;;;;;;10.87;8.37;;;;;;;;;;5101515;28;20690;-83
2023/01/05 01:18:58;;;;;;;16.30;9.13;;;;;;;;;;5099429;28;20265;-84
2023/01/05 01:21:25;;;;;;;10.97;9.27;;;;;;;;;;5093376;28;20205;-84
2023/01/05 01:23:52;;;;;;;10.83;7.97;;;;;;;;;;5077693;28;20209;-84
2023/01/05 01:26:20;;;;;;;9.60;7.97;;;;;;;;;;5102589;28;20206;-82
2023/01/05 01:28:50;;;;;;;13.20;8.63;;;;;;;;;;5083829;28;20208;-83
2023/01/05 01:31:17;;;;;;;12.63;9.27;;;;;;;;;;5064810;28;20219;-83
2023/01/05 01:33:44;;;;;;;10.17;9.07;;;;;;;;;;5091804;28;20208;-83
2023/01/05 01:36:11;;;;;;;10.93;8.30;;;;;;;;;;5091776;28;20230;-83
2023/01/05 01:38:38;;;;;;;9.33;8.20;;;;;;;;;;5078083;28;20210;-84
2023/01/05 01:41:05;;;;;;;9.90;8.50;;;;;;;;;;5091607;28;20697;-83
2023/01/05 01:43:45;;;;;;;10.70;8.00;;;;;;;;;;5092039;28;20595;-84
2023/01/05 01:46:13;;;;;;;9.93;8.03;;;;;;;;;;5091458;28;20200;-84
2023/01/05 01:48:44;;;;;;;9.47;7.47;;;;;;;;;;5078364;28;20204;-83
2023/01/05 01:51:15;;;;;;;9.53;8.53;;;;;;;;;;5072886;28;20207;-83
2023/01/05 01:53:43;;;;;;;13.87;9.33;;;;;;;;;;5087450;28;20203;-84
2023/01/05 01:56:15;;;;;;;11.80;9.27;;;;;;;;;;5083394;28;20217;-84
2023/01/05 01:58:44;;;;;;;9.10;7.87;;;;;;;;;;5091539;28;20211;-84
2023/01/05 02:01:11;;;;;;;10.23;9.13;;;;;;;;;;5104938;28;20208;-83
2023/01/05 02:03:38;;;;;;;9.70;7.80;;;;;;;;;;5101271;28;20199;-83
2023/01/05 02:06:06;;;;;;;13.27;7.90;;;;;;;;;;5097757;28;20234;-83
2023/01/05 02:08:33;;;;;;;10.37;8.63;;;;;;;;;;5091357;28;20204;-83
2023/01/05 02:11:10;;;;;;;10.83;7.77;;;;;;;;;;5105012;28;20207;-84
2023/01/05 02:13:47;;;;;;;7.63;6.40;;;;;;;;;;5099974;28;20204;-83
2023/01/05 02:16:21;;;;;;;10.83;6.27;;;;;;;;;;5097691;28;20661;-85
2023/01/05 02:19:03;;;;;;;8.00;6.97;;;;;;;;;;5079268;28;20594;-83
2023/01/05 02:21:37;;;;;;;8.93;7.40;;;;;;;;;;5073245;28;20203;-83
2023/01/05 02:24:22;;;;;;;9.37;7.27;;;;;;;;;;5109050;28;20203;-83
2023/01/05 02:27:08;;;;;;;7.63;6.53;;;;;;;;;;5111245;28;20217;-83
2023/01/05 02:30:20;;;;;;;8.17;6.87;;;;;;;;;;5074220;28;20212;-83
2023/01/05 02:32:54;;;;;;;8.67;6.20;;;;;;;;;;5090506;28;20207;-83
2023/01/05 02:35:30;;;;;;;8.90;6.17;;;;;;;;;;5089236;28;20236;-83
2023/01/05 02:38:01;;;;;;;8.00;7.20;;;;;;;;;;5091180;28;20622;-83
2023/01/05 02:40:33;;;;;;;9.47;8.33;;;;;;;;;;5073392;28;20211;-83
2023/01/05 02:43:01;;;;;;;8.83;6.87;;;;;;;;;;5094810;28;20200;-84
2023/01/05 02:45:27;;;;;;;7.87;7.07;;;;;;;;;;5102591;28;20207;-83
2023/01/05 02:47:56;;;;;;;9.90;7.57;;;;;;;;;;5115733;28;20195;-83
2023/01/05 02:50:26;;;;;;;7.13;6.00;;;;;;;;;;5099483;28;20197;-84
2023/01/05 02:52:57;;;;;;;9.53;6.60;;;;;;;;;;5088770;28;20268;-83
2023/01/05 02:55:27;;;;;;;9.97;7.63;;;;;;;;;;5050022;28;20228;-83
2023/01/05 02:57:57;;;;;;;9.37;7.63;;;;;;;;;;5078828;28;20203;-83
2023/01/05 03:00:27;;;;;;;9.07;7.03;;;;;;;;;;5115142;28;20215;-84
2023/01/05 03:02:59;;;;;;;9.43;7.57;;;;;;;;;;5084314;28;20208;-84
2023/01/05 03:05:29;;;;;;;13.93;8.17;;;;;;;;;;5106646;28;20231;-84
2023/01/05 03:08:05;;;;;;;9.33;7.33;;;;;;;;;;5107238;28;20201;-84
2023/01/05 03:16:07;;;;;;;9.87;7.00;;;;;;;;;;5113390;28;20625;-84
2023/01/05 03:19:34;;;;;;;9.87;7.73;;;;;;;;;;5070474;28;20255;-84
2023/01/05 03:21:25;;;;;;;10.00;7.93;;;;;;;;;;5093533;28;20203;-83
2023/01/05 03:37:46;;;;;;;10.70;9.13;;;;;;;;;;5083976;28;20220;-83
2023/01/05 03:40:17;;;;;;;9.60;8.10;;;;;;;;;;5097872;28;20210;-84
2023/01/05 03:42:45;;;;;;;13.83;9.37;;;;;;;;;;5103037;28;20212;-84
2023/01/05 03:45:13;;;;;;;9.30;8.30;;;;;;;;;;5076062;28;20215;-83
2023/01/05 03:47:40;;;;;;;13.93;10.37;;;;;;;;;;5103845;28;20211;-83
2023/01/05 03:50:10;;;;;;;18.53;13.67;;;;;;;;;;5101628;28;20208;-84
2023/01/05 03:52:36;;;;;;;15.70;10.80;;;;;;;;;;5100336;28;20204;-84
2023/01/05 03:55:03;;;;;;;14.57;11.23;;;;;;;;;;5095932;28;20220;-86
2023/01/05 03:57:30;;;;;;;10.97;8.17;;;;;;;;;;5082022;28;20277;-83
2023/01/05 03:59:57;;;;;;;11.67;9.20;;;;;;;;;;5107391;28;20264;-83
2023/01/05 04:02:24;;;;;;;18.67;13.77;;;;;;;;;;5067298;28;20207;-84
2023/01/05 04:04:51;;;;;;;18.67;12.50;;;;;;;;;;5104979;28;20647;-84
2023/01/05 04:07:19;;;;;;;12.07;9.03;;;;;;;;;;5104758;28;20656;-84
2023/01/05 04:09:46;;;;;;;12.63;10.77;;;;;;;;;;5075192;28;20227;-84
2023/01/05 04:12:13;;;;;;;13.53;10.37;;;;;;;;;;5103095;28;20208;-84
2023/01/05 04:14:40;;;;;;;13.17;10.33;;;;;;;;;;5100030;28;20212;-84
2023/01/05 04:17:07;;;;;;;14.00;9.77;;;;;;;;;;5095711;28;20227;-83
2023/01/05 04:19:34;;;;;;;11.73;10.37;;;;;;;;;;5110365;28;20212;-84
2023/01/05 04:22:00;;;;;;;15.87;9.63;;;;;;;;;;5093407;28;20189;-83
2023/01/05 04:24:29;;;;;;;11.40;9.37;;;;;;;;;;5089323;28;20201;-84
2023/01/05 04:26:56;;;;;;;11.53;9.57;;;;;;;;;;5051154;28;20208;-80
2023/01/05 04:29:23;;;;;;;13.90;11.10;;;;;;;;;;5106386;28;20675;-79
2023/01/05 04:31:50;;;;;;;14.00;10.93;;;;;;;;;;5091016;28;20208;-80
2023/01/05 04:34:17;;;;;;;13.73;10.40;;;;;;;;;;5059987;28;20190;-80
2023/01/05 04:36:46;;;;;;;11.53;10.33;;;;;;;;;;5087019;28;20231;-80
2023/01/05 04:39:13;;;;;;;13.40;10.57;;;;;;;;;;5092319;28;20216;-80
2023/01/05 04:41:41;;;;;;;15.23;11.80;;;;;;;;;;5108265;28;20203;-80
2023/01/05 04:44:08;;;;;;;14.80;12.40;;;;;;;;;;5109569;28;20263;-81
2023/01/05 04:46:35;;;;;;;48.43;25.00;;;;;;;;;;5082298;28;20200;-80
2023/01/05 04:49:02;;;;;;;17.67;12.70;;;;;;;;;;5083674;28;20703;-81
2023/01/05 04:51:29;;;;;;;16.43;10.57;;;;;;;;;;5079281;28;20199;-81
2023/01/05 04:53:56;;;;;;;13.13;9.83;;;;;;;;;;5094514;28;20208;-81
2023/01/05 04:56:23;;;;;;;13.87;10.53;;;;;;;;;;5105252;28;20223;-81
2023/01/05 04:58:51;;;;;;;12.13;9.53;;;;;;;;;;5073038;28;20204;-81
2023/01/05 05:01:18;;;;;;;14.57;12.97;;;;;;;;;;5074358;28;20200;-81
2023/01/05 05:03:45;;;;;;;14.87;12.70;;;;;;;;;;5070592;28;20212;-80
2023/01/05 05:06:12;;;;;;;18.90;13.50;;;;;;;;;;5088132;28;20765;-83
2023/01/05 05:08:40;;;;;;;17.03;12.60;;;;;;;;;;5073886;28;20200;-83
2023/01/05 05:11:07;;;;;;;14.40;11.17;;;;;;;;;;5087711;28;20266;-84
2023/01/05 05:13:34;;;;;;;25.00;19.07;;;;;;;;;;5091886;28;20208;-82
2023/01/05 05:16:02;;;;;;;20.27;15.23;;;;;;;;;;5092017;28;20224;-81
2023/01/05 05:18:31;;;;;;;16.33;11.87;;;;;;;;;;5091736;28;20211;-82
2023/01/05 05:20:58;;;;;;;12.07;10.10;;;;;;;;;;5101838;28;20217;-82
2023/01/05 05:23:24;;;;;;;14.03;10.27;;;;;;;;;;5081088;28;20735;-82
2023/01/05 05:25:52;;;;;;;13.00;10.17;;;;;;;;;;5065786;28;20671;-83
2023/01/05 05:28:20;;;;;;;15.93;14.30;;;;;;;;;;5091401;28;20204;-83
2023/01/05 05:30:48;;;;;;;21.23;15.90;;;;;;;;;;5091200;28;20212;-83
2023/01/05 05:33:17;;;;;;;25.83;21.27;;;;;;;;;;5091705;28;20208;-83
2023/01/05 05:35:44;;;;;;;22.63;16.37;;;;;;;;;;5071100;28;20588;-83
2023/01/05 05:38:12;;;;;;;14.47;10.97;;;;;;;;;;5084696;28;20208;-83
2023/01/05 05:40:39;;;;;;;21.10;11.80;;;;;;;;;;5098925;28;20207;-84
2023/01/05 05:43:06;;;;;;;15.37;11.33;;;;;;;;;;5097324;28;20215;-83
2023/01/05 05:45:32;;;;;;;15.70;10.17;;;;;;;;;;5091525;28;20200;-83
2023/01/05 05:48:00;;;;;;;13.53;10.33;;;;;;;;;;5091434;28;20256;-82
2023/01/05 05:50:28;;;;;;;13.07;10.97;;;;;;;;;;5083070;28;20227;-83
2023/01/05 05:52:55;;;;;;;12.50;9.37;;;;;;;;;;5086262;28;20208;-82
2023/01/05 05:55:21;;;;;;;15.47;11.93;;;;;;;;;;5091082;28;20215;-84
2023/01/05 05:57:48;;;;;;;12.63;9.57;;;;;;;;;;5091069;28;20224;-83
2023/01/05 06:00:16;;;;;;;56.13;24.53;;;;;;;;;;5091204;28;20679;-83
2023/01/05 06:02:42;;;;;;;41.17;21.40;;;;;;;;;;5092678;28;20579;-82
2023/01/05 06:05:09;;;;;;;30.33;19.90;;;;;;;;;;5102564;28;20224;-83
2023/01/05 06:07:39;;;;;;;23.10;15.40;;;;;;;;;;5091290;28;20215;-83
2023/01/05 06:10:07;;;;;;;20.90;14.40;;;;;;;;;;5090741;28;20189;-83
2023/01/05 06:12:34;;;;;;;16.97;12.00;;;;;;;;;;5104590;28;20215;-83
2023/01/05 06:15:01;;;;;;;16.93;11.97;;;;;;;;;;5101738;28;20629;-84
2023/01/05 06:17:27;;;;;;;13.67;11.73;;;;;;;;;;5109716;28;20799;-83
2023/01/05 06:19:54;;;;;;;16.93;12.83;;;;;;;;;;5090454;28;20202;-84
2023/01/05 06:22:21;;;;;;;16.87;12.53;;;;;;;;;;5087900;28;20212;-83
2023/01/05 06:24:49;;;;;;;19.50;14.70;;;;;;;;;;5080525;28;20200;-83
2023/01/05 06:27:16;;;;;;;16.63;13.37;;;;;;;;;;5092940;28;20294;-83
2023/01/05 06:29:43;;;;;;;19.03;13.47;;;;;;;;;;5110904;28;20602;-83
2023/01/05 06:32:09;;;;;;;22.40;16.00;;;;;;;;;;5089488;28;20209;-83
2023/01/05 06:34:36;;;;;;;19.57;14.70;;;;;;;;;;5081641;28;20676;-83
2023/01/05 06:37:06;;;;;;;19.63;15.10;;;;;;;;;;5090691;28;20587;-83
2023/01/05 06:39:33;;;;;;;28.73;20.57;;;;;;;;;;5091113;28;20624;-83
2023/01/05 06:42:01;;;;;;;23.73;14.27;;;;;;;;;;5090595;28;20212;-83
2023/01/05 06:44:28;;;;;;;17.60;12.97;;;;;;;;;;5103539;28;20709;-83
2023/01/05 06:46:54;;;;;;;15.63;11.67;;;;;;;;;;5091121;28;20571;-83
2023/01/05 06:49:21;;;;;;;25.53;20.77;;;;;;;;;;5077544;28;20201;-83
2023/01/05 06:51:48;;;;;;;25.00;18.70;;;;;;;;;;5090136;28;20643;-84
2023/01/05 06:54:15;;;;;;;18.80;13.70;;;;;;;;;;5077049;28;20208;-83
2023/01/05 06:56:42;;;;;;;17.67;12.90;;;;;;;;;;5083983;28;20224;-83
2023/01/05 06:59:11;;;;;;;18.30;14.47;;;;;;;;;;5083869;28;20204;-83
2023/01/05 07:01:38;;;;;;;18.83;14.07;;;;;;;;;;5098089;28;20207;-83
2023/01/05 07:04:05;;;;;;;16.43;13.53;;;;;;;;;;5096296;28;20247;-83
2023/01/05 07:06:32;;;;;;;25.17;16.60;;;;;;;;;;5090739;28;20208;-82
2023/01/05 07:08:58;;;;;;;20.40;15.23;;;;;;;;;;5090253;28;20204;-83
2023/01/05 07:11:25;;;;;;;20.00;14.67;;;;;;;;;;5090638;28;20204;-83
2023/01/05 07:13:52;;;;;;;21.13;16.27;;;;;;;;;;5090866;28;20667;-83
2023/01/05 07:16:20;;;;;;;21.17;14.67;;;;;;;;;;5110252;28;20203;-83
2023/01/05 07:18:47;;;;;;;21.10;15.70;;;;;;;;;;5109919;28;20199;-83
2023/01/05 07:21:14;;;;;;;22.03;15.27;;;;;;;;;;5102401;28;20200;-83
2023/01/05 07:23:41;;;;;;;23.93;14.80;;;;;;;;;;5089583;28;20204;-84
2023/01/05 07:26:08;;;;;;;17.47;13.53;;;;;;;;;;5086118;28;20204;-83
2023/01/05 07:28:36;;;;;;;19.80;14.63;;;;;;;;;;5098049;28;20205;-83
2023/01/05 07:31:03;;;;;;;19.80;12.93;;;;;;;;;;5102055;28;20203;-82
2023/01/05 07:33:31;;;;;;;18.77;14.60;;;;;;;;;;5111895;28;20662;-82
2023/01/05 07:36:00;;;;;;;21.10;15.37;;;;;;;;;;5102886;28;20210;-83
2023/01/05 07:38:27;;;;;;;19.33;13.83;;;;;;;;;;5087095;28;20239;-83
2023/01/05 07:40:54;;;;;;;19.47;12.97;;;;;;;;;;5093886;28;20250;-83
2023/01/05 07:43:21;;;;;;;21.60;14.40;;;;;;;;;;5100645;28;20220;-83
2023/01/05 07:45:48;;;;;;;19.20;13.03;;;;;;;;;;5083884;28;20277;-82
2023/01/05 07:48:14;;;;;;;20.93;14.90;;;;;;;;;;5093570;28;20208;-83
2023/01/05 07:50:43;;;;;;;23.50;14.37;;;;;;;;;;5104190;28;20662;-85
2023/01/05 07:53:10;;;;;;;17.80;13.10;;;;;;;;;;5109788;28;20203;-82
2023/01/05 07:55:36;;;;;;;18.43;14.90;;;;;;;;;;5104766;28;20199;-82
2023/01/05 07:58:03;;;;;;;21.07;14.17;;;;;;;;;;5109413;28;20246;-83
2023/01/05 08:00:30;;;;;;;19.63;14.97;;;;;;;;;;5093051;28;20202;-83
2023/01/05 08:02:57;;;;;;;22.17;15.20;;;;;;;;;;5097988;28;20199;-83
2023/01/05 08:05:28;;;;;;;26.53;16.10;;;;;;;;;;5113356;28;20706;-83
2023/01/05 08:07:57;;;;;;;21.20;15.40;;;;;;;;;;5113332;28;20207;-82
2023/01/05 08:10:29;;;;;;;21.20;14.07;;;;;;;;;;5113617;28;20208;-83
2023/01/05 08:15:45;;;;;;;18.97;14.60;;;;;;;;;;5096841;28;20256;-82
2023/01/05 08:18:12;;;;;;;26.63;15.50;;;;;;;;;;5113524;28;20220;-82
2023/01/05 08:20:40;;;;;;;18.47;15.47;;;;;;;;;;5099519;28;20226;-83
2023/01/05 08:23:08;;;;;;;17.20;13.67;;;;;;;;;;5101879;28;20208;-82
2023/01/05 08:25:35;;;;;;;17.90;15.03;;;;;;;;;;5079712;28;20200;-83
2023/01/05 08:28:01;;;;;;;18.60;14.60;;;;;;;;;;5081696;28;20201;-82
2023/01/05 08:30:28;;;;;;;20.23;16.17;;;;;;;;;;5073238;28;20193;-82
2023/01/05 08:32:55;;;;;;;19.77;13.20;;;;;;;;;;5083059;28;20201;-82
2023/01/05 08:35:22;;;;;;;16.37;14.63;;;;;;;;;;5102120;28;20213;-83
2023/01/05 08:37:49;;;;;;;19.43;15.03;;;;;;;;;;5072372;28;20220;-82
2023/01/05 08:40:17;;;;;;;16.00;13.57;;;;;;;;;;5071815;28;20204;-83
2023/01/05 08:42:46;;;;;;;18.53;13.20;;;;;;;;;;5095788;28;20219;-82
2023/01/05 08:45:13;;;;;;;14.17;11.43;;;;;;;;;;5107514;28;20200;-82
2023/01/05 08:47:41;;;;;;;18.97;12.17;;;;;;;;;;5092605;28;20208;-81
2023/01/05 08:50:09;;;;;;;18.43;12.10;;;;;;;;;;5110437;28;20211;-83
2023/01/05 08:52:36;;;;;;;18.67;13.50;;;;;;;;;;5112834;28;20660;-82
2023/01/05 08:55:04;;;;;;;19.57;13.37;;;;;;;;;;5106556;28;20207;-82
2023/01/05 08:57:32;;;;;;;19.20;13.97;;;;;;;;;;5105310;28;20227;-82
2023/01/05 08:59:59;;;;;;;17.73;14.17;;;;;;;;;;5091801;28;20641;-82
2023/01/05 09:02:26;;;;;;;21.93;15.03;;;;;;;;;;5106066;28;20218;-83
2023/01/05 09:04:53;;;;;;;21.27;14.70;;;;;;;;;;5112152;28;20234;-82
2023/01/05 09:07:21;;;;;;;19.77;15.17;;;;;;;;;;5098066;28;20200;-83
2023/01/05 09:09:48;;;;;;;19.73;15.00;;;;;;;;;;5099682;28;20686;-83
2023/01/05 09:12:14;;;;;;;38.90;26.20;;;;;;;;;;5099057;28;20207;-84
2023/01/05 09:14:43;;;;;;;26.07;18.40;;;;;;;;;;5096080;28;20560;-83
2023/01/05 09:17:09;;;;;;;24.13;16.07;;;;;;;;;;5072956;28;20204;-83
2023/01/05 09:19:36;;;;;;;20.13;14.57;;;;;;;;;;5100330;28;20203;-83
2023/01/05 09:22:03;;;;;;;24.07;16.43;;;;;;;;;;5111766;28;20215;-82
2023/01/05 09:24:30;;;;;;;35.13;25.43;;;;;;;;;;5103724;28;20299;-83
2023/01/05 09:26:57;;;;;;;23.70;18.40;;;;;;;;;;5091572;28;20633;-82
2023/01/05 09:29:23;;;;;;;20.60;17.07;;;;;;;;;;5091450;28;20655;-83
2023/01/05 09:31:52;;;;;;;21.63;18.03;;;;;;;;;;5091635;28;20242;-83
2023/01/05 09:34:18;;;;;;;21.60;15.73;;;;;;;;;;5112090;28;20208;-83
2023/01/05 09:36:45;;;;;;;20.13;14.37;;;;;;;;;;5082407;28;20741;-83
2023/01/05 09:39:12;;;;;;;20.77;14.00;;;;;;;;;;5100584;28;20230;-83
2023/01/05 09:41:43;;;;;;;18.00;14.77;;;;;;;;;;5092972;28;20201;-83
2023/01/05 09:44:15;;;;;;;16.97;13.33;;;;;;;;;;5091691;28;20209;-84
2023/01/05 09:46:45;;;;;;;17.47;12.73;;;;;;;;;;5111589;28;20672;-82
2023/01/05 09:49:20;;;;;;;17.87;13.20;;;;;;;;;;5111384;28;20209;-84
2023/01/05 09:51:48;;;;;;;14.43;11.73;;;;;;;;;;5085541;28;20197;-84
2023/01/05 09:54:17;;;;;;;18.07;13.80;;;;;;;;;;5084346;28;20200;-85
2023/01/05 09:56:45;;;;;;;15.47;13.30;;;;;;;;;;5070991;28;20196;-81
2023/01/05 09:59:15;;;;;;;18.40;12.33;;;;;;;;;;5085020;28;20740;-82
2023/01/05 10:01:42;;;;;;;16.67;12.53;;;;;;;;;;5090904;28;20200;-82
2023/01/05 10:04:13;;;;;;;14.13;11.73;;;;;;;;;;5077663;28;20675;-82
2023/01/05 10:06:44;;;;;;;13.73;11.87;;;;;;;;;;5090878;28;20214;-83
2023/01/05 10:09:17;;;;;;;13.73;10.27;;;;;;;;;;5093132;28;20207;-82
2023/01/05 10:14:36;;;;;;;14.77;10.83;;;;;;;;;;5090860;28;20281;-82
2023/01/05 10:17:05;;;;;;;11.87;10.67;;;;;;;;;;5090129;28;20622;-83
2023/01/05 10:19:31;;;;;;;19.90;11.57;;;;;;;;;;5090845;28;20235;-82
2023/01/05 10:22:04;;;;;;;37.10;19.10;;;;;;;;;;5091851;28;20207;-83
2023/01/05 10:24:39;;;;;;;18.10;13.03;;;;;;;;;;5111202;28;20251;-83
2023/01/05 10:27:10;;;;;;;14.53;10.83;;;;;;;;;;5106853;28;20284;-82
2023/01/05 10:29:41;;;;;;;58.60;27.27;;;;;;;;;;5090817;28;20212;-82
2023/01/05 10:32:16;;;;;;;115.73;52.60;;;;;;;;;;5093857;28;20287;-83
2023/01/05 10:34:58;;;;;;;35.67;22.53;;;;;;;;;;5086201;28;20585;-82
2023/01/05 10:37:52;;;;;;;23.57;19.13;;;;;;;;;;5070450;28;20211;-83
2023/01/05 10:40:27;;;;;;;15.67;12.27;;;;;;;;;;5088945;28;20200;-83
2023/01/05 10:43:09;;;;;;;11.63;9.53;;;;;;;;;;5090486;28;20215;-82
2023/01/05 10:45:37;;;;;;;11.37;9.20;;;;;;;;;;5086130;28;20214;-82
2023/01/05 10:48:09;;;;;;;10.00;8.97;;;;;;;;;;5096911;28;20208;-83
2023/01/05 10:50:37;;;;;;;12.20;9.20;;;;;;;;;;5101530;28;20200;-82
2023/01/05 10:53:10;;;;;;;18.10;13.47;;;;;;;;;;5090049;28;20215;-82
2023/01/05 10:55:45;;;;;;;13.17;11.43;;;;;;;;;;5079956;28;20234;-82
2023/01/05 10:58:22;;;;;;;23.90;16.47;;;;;;;;;;5094459;28;20231;-82
2023/01/05 11:00:49;;;;;;;21.40;16.23;;;;;;;;;;5096638;28;20477;-82
2023/01/05 11:03:17;;;;;;;27.77;19.20;;;;;;;;;;5100427;28;20211;-82
2023/01/05 11:05:46;;;;;;;31.97;16.10;;;;;;;;;;5114687;28;20246;-83
2023/01/05 11:08:17;;;;;;;19.60;13.23;;;;;;;;;;5114829;28;20670;-82
2023/01/05 11:10:50;;;;;;;17.47;12.07;;;;;;;;;;5112542;28;20255;-83
2023/01/05 11:13:20;;;;;;;25.10;19.50;;;;;;;;;;5094512;28;20208;-86
2023/01/05 11:15:50;;;;;;;20.53;14.50;;;;;;;;;;5097812;28;20207;-82
2023/01/05 11:18:24;;;;;;;17.37;14.03;;;;;;;;;;5092440;28;20245;-83
2023/01/05 11:21:15;;;;;;;17.50;14.43;;;;;;;;;;5078966;28;20679;-83
2023/01/05 11:23:44;;;;;;;17.30;13.27;;;;;;;;;;5093619;28;20691;-83
2023/01/05 11:26:26;;;;;;;16.83;13.03;;;;;;;;;;5093803;28;20290;-82
2023/01/05 11:29:15;;;;;;;12.97;10.80;;;;;;;;;;5089923;28;20254;-82
2023/01/05 11:31:48;;;;;;;15.57;11.23;;;;;;;;;;5097651;28;20603;-82
2023/01/05 11:34:23;;;;;;;12.40;10.57;;;;;;;;;;5094207;28;20287;-82
2023/01/05 11:36:54;;;;;;;12.57;10.73;;;;;;;;;;5091086;28;20220;-82
2023/01/05 11:39:27;;;;;;;12.33;11.03;;;;;;;;;;5083847;28;20601;-81
2023/01/05 11:42:15;;;;;;;11.83;10.43;;;;;;;;;;5089047;28;20209;-82
2023/01/05 11:44:43;;;;;;;15.47;11.97;;;;;;;;;;5102137;28;20302;-81
2023/01/05 11:47:19;;;;;;;11.53;10.23;;;;;;;;;;5106016;28;20219;-82
2023/01/05 11:49:46;;;;;;;13.90;10.93;;;;;;;;;;5109711;28;20207;-82
2023/01/05 11:52:26;;;;;;;20.30;12.90;;;;;;;;;;5113685;28;20218;-82
2023/01/05 11:54:54;;;;;;;14.50;12.07;;;;;;;;;;5109103;28;20201;-83
2023/01/05 11:57:22;;;;;;;12.87;10.30;;;;;;;;;;5105432;28;20264;-82
2023/01/05 11:59:50;;;;;;;14.83;11.77;;;;;;;;;;5099509;28;20776;-83
2023/01/05 12:02:41;;;;;;;15.47;12.87;;;;;;;;;;5088821;28;20198;-82
2023/01/05 12:05:26;;;;;;;14.00;11.23;;;;;;;;;;5070741;28;20244;-82
2023/01/05 12:07:56;;;;;;;13.90;10.50;;;;;;;;;;5093755;28;20236;-82
2023/01/05 12:10:48;;;;;;;15.93;11.80;;;;;;;;;;5092844;28;20209;-82
2023/01/05 12:13:43;;;;;;;12.03;9.97;;;;;;;;;;5090896;28;20245;-82
2023/01/05 12:16:22;;;;;;;18.87;10.83;;;;;;;;;;5099520;28;20635;-82
2023/01/05 12:19:04;;;;;;;13.27;10.70;;;;;;;;;;5113059;28;20610;-83
2023/01/05 12:21:36;;;;;;;15.20;10.97;;;;;;;;;;5113465;28;20203;-82
2023/01/05 12:24:24;;;;;;;15.17;11.60;;;;;;;;;;5109867;28;20200;-82
2023/01/05 12:27:00;;;;;;;13.93;11.23;;;;;;;;;;5092664;28;20197;-82
2023/01/05 12:29:51;;;;;;;13.73;10.57;;;;;;;;;;5084225;28;20201;-83
2023/01/05 12:32:31;;;;;;;19.60;13.17;;;;;;;;;;5087153;28;20222;-83
2023/01/05 12:35:12;;;;;;;21.63;18.23;;;;;;;;;;5111914;28;20203;-82
2023/01/05 12:37:45;;;;;;;28.83;21.10;;;;;;;;;;5091119;28;20199;-83
2023/01/05 12:40:25;;;;;;;20.80;14.83;;;;;;;;;;5109037;28;20762;-83
2023/01/05 12:42:58;;;;;;;32.30;23.63;;;;;;;;;;5104715;28;20199;-83
2023/01/05 12:45:42;;;;;;;16.73;13.77;;;;;;;;;;5086131;28;20582;-83
2023/01/05 12:48:13;;;;;;;19.03;14.93;;;;;;;;;;5087765;28;20196;-83
2023/01/05 12:50:43;;;;;;;14.63;11.70;;;;;;;;;;5083326;28;20219;-83
2023/01/05 12:53:16;;;;;;;13.70;9.63;;;;;;;;;;5085594;28;20205;-82
2023/01/05 12:55:47;;;;;;;13.50;10.03;;;;;;;;;;5094286;28;20233;-83
2023/01/05 12:58:18;;;;;;;13.43;11.50;;;;;;;;;;5107572;28;20679;-83
2023/01/05 13:00:46;;;;;;;12.40;10.87;;;;;;;;;;5104888;28;20204;-83
2023/01/05 13:03:23;;;;;;;12.37;10.10;;;;;;;;;;5112702;28;20599;-82
2023/01/05 13:05:57;;;;;;;13.80;11.13;;;;;;;;;;5098734;28;20251;-83
2023/01/05 13:08:28;;;;;;;13.63;10.20;;;;;;;;;;5092186;28;20207;-82
2023/01/05 13:10:59;;;;;;;13.50;11.53;;;;;;;;;;5103006;28;20303;-83
2023/01/05 13:13:30;;;;;;;14.83;11.53;;;;;;;;;;5071881;28;20253;-82
2023/01/05 13:16:02;;;;;;;15.53;11.57;;;;;;;;;;5099137;28;20197;-83
2023/01/05 13:18:30;;;;;;;16.13;11.53;;;;;;;;;;5083501;28;20201;-83
2023/01/05 13:21:00;;;;;;;13.53;11.17;;;;;;;;;;5085999;28;20259;-82
2023/01/05 13:23:29;;;;;;;12.40;10.97;;;;;;;;;;5096287;28;20291;-83
2023/01/05 13:25:58;;;;;;;14.23;11.40;;;;;;;;;;5097940;28;20990;-82
2023/01/05 13:28:27;;;;;;;17.60;10.67;;;;;;;;;;5098414;28;20603;-83
2023/01/05 13:31:24;;;;;;;12.73;10.33;;;;;;;;;;5091667;28;20192;-82
2023/01/05 13:34:22;;;;;;;32.83;22.70;;;;;;;;;;5078039;28;20200;-83
2023/01/05 13:37:08;;;;;;;20.50;12.77;;;;;;;;;;5105390;28;20207;-83
2023/01/05 13:39:47;;;;;;;15.37;10.80;;;;;;;;;;5091632;28;20229;-83
2023/01/05 13:42:33;;;;;;;13.73;11.03;;;;;;;;;;5078795;28;20208;-83
2023/01/05 13:45:23;;;;;;;52.33;33.97;;;;;;;;;;5105192;28;20208;-83
2023/01/05 13:48:08;;;;;;;18.83;15.23;;;;;;;;;;5091127;28;20216;-83
2023/01/05 13:50:49;;;;;;;15.20;11.93;;;;;;;;;;5080771;28;20208;-82
2023/01/05 13:53:17;;;;;;;14.70;12.40;;;;;;;;;;5096601;28;20663;-83
2023/01/05 13:55:48;;;;;;;12.57;11.27;;;;;;;;;;5111929;28;20206;-82
2023/01/05 13:58:33;;;;;;;12.90;10.60;;;;;;;;;;5097619;28;20207;-82
2023/01/05 14:01:03;;;;;;;14.40;11.67;;;;;;;;;;5111513;28;20217;-84
2023/01/05 14:03:32;;;;;;;16.00;12.63;;;;;;;;;;5093646;28;20212;-83
2023/01/05 14:06:01;;;;;;;17.23;12.27;;;;;;;;;;5103709;28;20236;-84
2023/01/05 14:08:31;;;;;;;14.07;12.10;;;;;;;;;;5101553;28;20204;-84
2023/01/05 14:11:16;;;;;;;14.97;12.00;;;;;;;;;;5107933;28;20199;-85
2023/01/05 14:13:46;;;;;;;37.07;26.67;;;;;;;;;;5110890;28;20301;-84
2023/01/05 14:16:50;;;;;;;23.57;17.27;;;;;;;;;;5077620;28;20200;-84
2023/01/05 14:19:25;;;;;;;18.63;16.53;;;;;;;;;;5071942;28;20258;-83
2023/01/05 14:22:22;;;;;;;18.77;16.30;;;;;;;;;;5084141;28;20207;-84
2023/01/05 14:24:50;;;;;;;25.77;18.63;;;;;;;;;;5081617;28;20219;-83
2023/01/05 14:27:18;;;;;;;27.90;22.53;;;;;;;;;;5086415;28;20655;-84
2023/01/05 14:30:21;;;;;;;29.20;25.30;;;;;;;;;;5070868;28;20212;-84
2023/01/05 14:32:52;;;;;;;18.20;16.07;;;;;;;;;;5070870;28;20748;-85
2023/01/05 14:35:25;;;;;;;19.10;15.90;;;;;;;;;;5089271;28;20204;-83
2023/01/05 14:37:55;;;;;;;33.10;24.30;;;;;;;;;;5081691;28;20200;-84
2023/01/05 14:40:33;;;;;;;20.83;15.27;;;;;;;;;;5108753;28;20227;-84
2023/01/05 14:43:02;;;;;;;15.67;13.63;;;;;;;;;;5111252;28;20580;-84
2023/01/05 14:45:30;;;;;;;22.23;18.03;;;;;;;;;;5077662;28;20204;-85
2023/01/05 14:48:01;;;;;;;17.83;15.13;;;;;;;;;;5076870;28;20212;-84
2023/01/05 14:50:33;;;;;;;15.57;13.07;;;;;;;;;;5090434;28;20206;-85
2023/01/05 14:53:03;;;;;;;21.93;18.33;;;;;;;;;;5087817;28;20208;-84
2023/01/05 14:55:31;;;;;;;15.73;13.97;;;;;;;;;;5080055;28;20205;-85
2023/01/05 14:57:59;;;;;;;15.47;12.80;;;;;;;;;;5073798;28;20208;-84
2023/01/05 15:00:52;;;;;;;13.07;11.73;;;;;;;;;;5080232;28;20223;-85
2023/01/05 15:03:29;;;;;;;12.87;10.50;;;;;;;;;;5058098;28;20201;-85
2023/01/05 15:06:09;;;;;;;15.10;12.50;;;;;;;;;;5077042;28;20654;-85
2023/01/05 15:09:20;;;;;;;21.70;14.73;;;;;;;;;;5079790;28;20204;-84
2023/01/05 15:12:22;;;;;;;34.03;26.47;;;;;;;;;;5069778;28;20197;-84
2023/01/05 15:15:05;;;;;;;68.47;51.33;;;;;;;;;;5078587;28;20221;-85
2023/01/05 15:18:05;;;;;;;55.50;40.83;;;;;;;;;;5094561;28;20337;-85
2023/01/05 15:21:09;;;;;;;47.57;34.40;;;;;;;;;;5110153;28;20620;-83